Terminal Aerodrome Forecast
Issued by NWS

Home | Current Version | Previous Version | Text Only | Print | Product List | Glossary On
Versions: 1 2 3 4 5 6 7 8 9 10 11 12 13 14 15 16 17 18 19 20 21 22 23 24 25 26 27 28 29 30 31 32 33 34 35
000
FTPQ31 PGUM 021731
TAFGUM
TAF

TAF
PGSN 021731Z 0218/0318 18035G50KT 4SM RA VCTS BKN014CB BKN040
      OVC080
      TEMPO 0218/0222 3SM +TSRA BKN012CB OVC020
     FM022200 16025G35KT P6SM -RA SCT014 BKN060 OVC100
      TEMPO 0222/0302 5SM SHRA SCT012 BKN025=

USA.gov is the U.S. government's official web portal to all federal, state and local government web resources and services.